aviador You're here:

BIRK Decoded Metar

REYKJAVIK in ICELAND
Report Time2017-08-22 11:00:00
UTC Time2017-08-22 11:08:17
Flight Rules vfr VFR
Wind160° at 04 kt
W.Decomp.*RWY 19: 3.9 kt HW 1 kt LCW
RWY 13: 2.8 kt HW 2.8 kt RCW
RWY 24: 1.7 kt HW 3.6 kt LCW
W.Rank160° ranks 12
Current wind is below 160° avg. (8.9)
Visibility9999 m
Phenomena:N/A
Clouds:Few 030 Hf
Scattered 220 Hf
Expected CloudBase > 4,000 ft AGL from Temp-Dew spread
CeilingNone
Temp14°C (ISA -1)
Dew Point04°C (51% RH)
AAT11.2°C
QNH1020 hPa
Density Alt7 ft
Elevation200 ft
Report Wrong Elevation
Raw Report
METAR BIRK 221100Z 16004KT 080V200 9999 FEW030 SCT220 14/04 Q1020=

Extra information for BIRK:More info

Metar Taf Metar & Taf Last 4 Metars F.Rules Stats Wind Profile Meteogram Temp Stats Airport Information Weather charts Add Link Nearby VenuesMetar ALERT Operation Metar Decoded Social comments